sensor_id;sensor_type;location;lat;lon;timestamp;pressure;altitude;pressure_sealevel;temperature;humidity
24996;BME280;13016;52.162;21.034;2024-03-22T00:06:10;100484.97;;;16.36;51.35
24996;BME280;13016;52.162;21.034;2024-03-22T00:12:45;100478.06;;;16.19;52.47
24996;BME280;13016;52.162;21.034;2024-03-22T00:19:22;100474.66;;;16.19;53.15
24996;BME280;13016;52.162;21.034;2024-03-22T01:21:50;100452.34;;;18.18;49.67
24996;BME280;13016;52.162;21.034;2024-03-22T01:27:56;100454.67;;;17.63;50.90
24996;BME280;13016;52.162;21.034;2024-03-22T01:37:20;100445.27;;;17.29;51.91
24996;BME280;13016;52.162;21.034;2024-03-22T01:43:26;100438.83;;;16.96;52.93
24996;BME280;13016;52.162;21.034;2024-03-22T01:49:30;100441.48;;;16.96;53.31
24996;BME280;13016;52.162;21.034;2024-03-22T02:02:11;100440.23;;;17.02;53.40
24996;BME280;13016;52.162;21.034;2024-03-22T02:08:12;100437.59;;;16.98;53.64
24996;BME280;13016;52.162;21.034;2024-03-22T02:14:12;100435.32;;;16.94;54.03
24996;BME280;13016;52.162;21.034;2024-03-22T02:26:49;100425.14;;;16.86;54.89
24996;BME280;13016;52.162;21.034;2024-03-22T02:32:49;100430.02;;;16.89;55.08
24996;BME280;13016;52.162;21.034;2024-03-22T02:38:49;100433.31;;;16.94;55.08
24996;BME280;13016;52.162;21.034;2024-03-22T02:44:50;100428.69;;;16.96;55.18
24996;BME280;13016;52.162;21.034;2024-03-22T02:50:57;100425.21;;;17.03;55.02
24996;BME280;13016;52.162;21.034;2024-03-22T02:56:58;100421.44;;;16.99;54.99
24996;BME280;13016;52.162;21.034;2024-03-22T03:02:58;100425.11;;;17.00;55.13
24996;BME280;13016;52.162;21.034;2024-03-22T03:09:36;100425.19;;;16.99;55.03
24996;BME280;13016;52.162;21.034;2024-03-22T03:15:37;100421.05;;;16.94;54.89
24996;BME280;13016;52.162;21.034;2024-03-22T03:22:12;100419.04;;;16.96;55.16
24996;BME280;13016;52.162;21.034;2024-03-22T03:28:20;100420.92;;;17.05;54.74
24996;BME280;13016;52.162;21.034;2024-03-22T03:34:20;100419.20;;;17.15;54.60
24996;BME280;13016;52.162;21.034;2024-03-22T03:40:20;100413.65;;;17.20;54.23
24996;BME280;13016;52.162;21.034;2024-03-22T03:46:27;100417.77;;;17.11;54.23
24996;BME280;13016;52.162;21.034;2024-03-22T04:18:07;100446.91;;;17.06;52.51
24996;BME280;13016;52.162;21.034;2024-03-22T04:44:28;100469.38;;;16.20;53.71
24996;BME280;13016;52.162;21.034;2024-03-22T04:50:51;100469.65;;;15.84;53.81
24996;BME280;13016;52.162;21.034;2024-03-22T04:56:52;100474.16;;;15.70;54.55
24996;BME280;13016;52.162;21.034;2024-03-22T05:03:13;100477.31;;;15.69;54.74
24996;BME280;13016;52.162;21.034;2024-03-22T05:09:14;100477.17;;;15.53;54.89
24996;BME280;13016;52.162;21.034;2024-03-22T05:15:30;100478.94;;;15.45;55.11
24996;BME280;13016;52.162;21.034;2024-03-22T06:54:50;100485.98;;;17.07;50.41
24996;BME280;13016;52.162;21.034;2024-03-22T07:19:57;100483.20;;;16.23;52.92
24996;BME280;13016;52.162;21.034;2024-03-22T09:22:24;100461.77;;;18.19;46.22
24996;BME280;13016;52.162;21.034;2024-03-22T09:28:59;100458.61;;;17.74;47.56
24996;BME280;13016;52.162;21.034;2024-03-22T11:04:36;100383.52;;;17.30;49.77
24996;BME280;13016;52.162;21.034;2024-03-22T11:54:14;100337.55;;;17.78;48.09
24996;BME280;13016;52.162;21.034;2024-03-22T15:47:01;100081.11;;;19.28;43.56
24996;BME280;13016;52.162;21.034;2024-03-22T15:53:02;100065.35;;;18.52;45.07
24996;BME280;13016;52.162;21.034;2024-03-22T15:59:04;100057.35;;;18.19;45.96
24996;BME280;13016;52.162;21.034;2024-03-22T16:05:33;100049.48;;;18.16;46.70
24996;BME280;13016;52.162;21.034;2024-03-22T17:31:20;99994.42;;;18.19;46.88
24996;BME280;13016;52.162;21.034;2024-03-22T19:57:48;99848.62;;;18.42;43.77
